Time;durP1;ratioP1;P1;durP2;ratioP2;P2;SDS_P1;SDS_P2;PMS_P1;PMS_P2;Temp;Humidity;BMP_temperature;BMP_pressure;BME280_temperature;BME280_humidity;BME280_pressure;Samples;Min_cycle;Max_cycle;Signal;HPM_P1;HPM_P2
2021/06/06 00:01:21;;;;;;;52.87;48.37;;;;;;;21.81;69.10;101579.28;5037826;28;20431;-68
2021/06/06 00:03:49;;;;;;;52.07;47.47;;;;;;;21.81;68.69;101580.19;5037784;28;20472;-67
2021/06/06 00:06:25;;;;;;;49.13;44.83;;;;;;;21.44;69.95;101583.63;5038303;28;20685;-68
2021/06/06 00:08:50;;;;;;;51.80;47.20;;;;;;;21.79;69.08;101584.66;5037886;28;20813;-67
2021/06/06 00:11:26;;;;;;;51.73;47.23;;;;;;;21.80;68.51;101583.75;5037935;28;20397;-68
2021/06/06 00:13:54;;;;;;;49.20;45.10;;;;;;;21.83;68.52;101581.00;5037993;28;20196;-68
2021/06/06 00:16:24;;;;;;;52.30;47.60;;;;;;;21.93;68.32;101576.34;5041460;28;20470;-67
2021/06/06 00:18:50;;;;;;;50.43;46.30;;;;;;;21.79;69.00;101581.13;5041110;28;20416;-68
2021/06/06 00:21:16;;;;;;;52.00;47.60;;;;;;;21.77;69.39;101580.28;5041670;28;20870;-69
2021/06/06 00:23:41;;;;;;;53.40;48.80;;;;;;;21.17;71.20;101583.31;5042301;28;20193;-68
2021/06/06 00:26:07;;;;;;;55.33;50.50;;;;;;;21.47;70.47;101588.00;5041557;28;20226;-68
2021/06/06 00:28:32;;;;;;;50.03;45.60;;;;;;;21.57;70.03;101592.25;5040853;28;20181;-69
2021/06/06 00:31:02;;;;;;;57.50;52.50;;;;;;;21.84;69.35;101595.16;5042239;28;20170;-68
2021/06/06 00:33:28;;;;;;;53.17;48.73;;;;;;;21.81;69.78;101595.22;5041517;28;20178;-68
2021/06/06 00:35:54;;;;;;;54.97;50.30;;;;;;;21.69;69.64;101594.59;5041586;28;20699;-67
2021/06/06 00:38:19;;;;;;;52.93;48.43;;;;;;;21.62;70.33;101600.09;5042041;28;20178;-67
2021/06/06 00:40:45;;;;;;;53.20;48.40;;;;;;;21.77;69.66;101589.13;5041575;28;20431;-68
2021/06/06 00:43:10;;;;;;;56.33;51.47;;;;;;;21.46;70.36;101597.75;5041299;28;20198;-68
2021/06/06 00:45:36;;;;;;;57.47;52.20;;;;;;;21.53;69.68;101602.03;5041743;28;20174;-68
2021/06/06 00:48:04;;;;;;;58.07;53.03;;;;;;;21.23;71.23;101600.91;5041461;28;20268;-68
2021/06/06 00:50:36;;;;;;;56.73;51.67;;;;;;;21.14;71.41;101607.25;5041276;28;20428;-68
2021/06/06 00:53:10;;;;;;;56.13;51.20;;;;;;;21.27;71.10;101605.25;5041145;28;20424;-69
2021/06/06 00:55:36;;;;;;;60.17;54.97;;;;;;;21.10;71.19;101602.94;5040557;28;20467;-68
2021/06/06 00:58:11;;;;;;;57.60;52.53;;;;;;;21.11;70.58;101610.00;5040799;28;20799;-69
2021/06/06 01:00:58;;;;;;;55.90;50.87;;;;;;;21.15;70.09;101611.66;5041232;28;20424;-70
2021/06/06 01:03:25;;;;;;;58.77;53.57;;;;;;;21.15;70.87;101616.97;5040260;28;20462;-68
2021/06/06 01:06:00;;;;;;;59.40;54.03;;;;;;;21.05;70.41;101611.88;5040589;28;20851;-68
2021/06/06 01:08:27;;;;;;;54.73;49.83;;;;;;;21.13;69.46;101608.16;5041112;28;20645;-68
2021/06/06 01:10:57;;;;;;;52.67;48.13;;;;;;;21.15;69.12;101610.81;5040486;28;20421;-68
2021/06/06 01:13:29;;;;;;;57.77;52.57;;;;;;;21.06;69.69;101611.84;5040690;28;20460;-68
2021/06/06 01:16:00;;;;;;;56.83;51.73;;;;;;;21.15;69.57;101610.81;5040272;28;20478;-68
2021/06/06 01:18:29;;;;;;;57.90;52.60;;;;;;;21.03;69.82;101609.28;5040037;28;20428;-68
2021/06/06 01:21:21;;;;;;;57.30;52.00;;;;;;;20.90;69.75;101605.97;5040029;28;20506;-67
2021/06/06 01:24:13;;;;;;;55.93;50.83;;;;;;;20.89;69.98;101604.25;5040647;28;20456;-69
2021/06/06 01:26:50;;;;;;;57.50;52.30;;;;;;;21.15;69.16;101603.72;5039109;28;20460;-69
2021/06/06 01:29:19;;;;;;;58.07;52.90;;;;;;;21.22;68.55;101599.16;5040815;28;20416;-68
2021/06/06 01:31:48;;;;;;;56.07;51.17;;;;;;;21.12;68.81;101601.13;5039804;28;20853;-68
2021/06/06 01:34:16;;;;;;;56.60;51.40;;;;;;;20.94;69.76;101597.06;5039706;28;20406;-68
2021/06/06 01:36:49;;;;;;;56.37;51.07;;;;;;;20.69;70.59;101597.53;5039703;28;20704;-68
2021/06/06 01:39:27;;;;;;;55.53;50.33;;;;;;;20.91;70.05;101590.97;5039770;28;20398;-68
2021/06/06 01:41:56;;;;;;;57.40;52.20;;;;;;;20.94;70.04;101596.19;5039530;28;20411;-68
2021/06/06 01:44:26;;;;;;;57.73;52.53;;;;;;;21.12;69.00;101606.44;5040419;28;20468;-67
2021/06/06 01:47:00;;;;;;;58.70;53.30;;;;;;;21.06;69.20;101600.38;5040209;28;20429;-68
2021/06/06 01:49:26;;;;;;;56.67;51.33;;;;;;;21.09;68.81;101606.47;5039492;28;20438;-68
2021/06/06 01:51:55;;;;;;;57.57;52.20;;;;;;;21.31;68.18;101600.72;5040050;28;20421;-68
2021/06/06 01:54:23;;;;;;;58.97;53.53;;;;;;;21.07;68.80;101604.75;5039594;28;20185;-67
2021/06/06 01:56:51;;;;;;;57.73;52.47;;;;;;;20.98;69.33;101605.84;5039786;28;20722;-67
2021/06/06 01:59:31;;;;;;;57.33;52.33;;;;;;;20.83;69.41;101594.63;5039389;28;20792;-68
2021/06/06 02:01:57;;;;;;;54.50;49.50;;;;;;;21.23;68.03;101603.56;5039643;28;20874;-68
2021/06/06 02:04:23;;;;;;;55.90;50.80;;;;;;;21.01;68.80;101595.16;5039823;28;20522;-67
2021/06/06 02:06:52;;;;;;;55.03;50.00;;;;;;;21.03;68.23;101596.88;5040007;28;20445;-68
2021/06/06 02:09:21;;;;;;;57.03;51.80;;;;;;;20.81;68.70;101596.44;5039587;28;20392;-68
2021/06/06 02:11:51;;;;;;;56.00;50.70;;;;;;;20.83;68.74;101599.91;5039061;28;20432;-68
2021/06/06 02:14:20;;;;;;;55.57;50.37;;;;;;;21.13;67.61;101600.22;5039033;28;20417;-69
2021/06/06 02:16:49;;;;;;;56.17;50.87;;;;;;;20.82;68.51;101599.97;5038945;28;20417;-68
2021/06/06 02:19:15;;;;;;;58.13;52.63;;;;;;;20.69;68.65;101602.84;5039817;28;20462;-69
2021/06/06 02:21:41;;;;;;;59.60;53.97;;;;;;;20.53;69.09;101596.91;5039746;28;20422;-68
2021/06/06 02:24:07;;;;;;;59.30;53.67;;;;;;;20.59;68.50;101603.88;5039530;28;20858;-68
2021/06/06 02:27:05;;;;;;;60.67;54.77;;;;;;;20.71;68.14;101600.16;5039441;28;20170;-68
2021/06/06 02:29:49;;;;;;;59.20;53.40;;;;;;;20.81;67.57;101603.50;5039008;28;20424;-69
2021/06/06 02:32:34;;;;;;;62.60;56.50;;;;;;;20.74;67.42;101604.53;5039410;28;20420;-68
2021/06/06 02:35:32;;;;;;;58.40;52.80;;;;;;;20.83;67.44;101604.38;5028394;28;20791;-67
2021/06/06 02:38:03;;;;;;;62.97;56.97;;;;;;;20.66;67.83;101609.94;5038408;28;20422;-68
2021/06/06 02:40:31;;;;;;;60.50;54.33;;;;;;;20.94;66.88;101601.50;5038377;28;20708;-68
2021/06/06 02:43:02;;;;;;;61.80;56.07;;;;;;;20.80;67.19;101600.00;5039182;28;20384;-67
2021/06/06 02:45:29;;;;;;;64.10;57.93;;;;;;;20.73;67.66;101602.78;5039221;28;20431;-68
2021/06/06 02:47:59;;;;;;;61.67;55.70;;;;;;;19.88;70.14;101604.19;5039050;28;20425;-69
2021/06/06 02:50:28;;;;;;;63.03;56.83;;;;;;;20.28;68.90;101606.19;5039360;28;20677;-68
2021/06/06 02:53:21;;;;;;;60.37;54.60;;;;;;;20.39;68.45;101609.56;5038909;28;20399;-69
2021/06/06 02:55:49;;;;;;;63.03;57.03;;;;;;;20.34;68.74;101608.75;5038022;28;20644;-69
2021/06/06 02:58:20;;;;;;;60.87;55.07;;;;;;;20.06;69.84;101609.19;5021488;28;20428;-68
2021/06/06 03:00:53;;;;;;;62.40;56.40;;;;;;;20.12;69.66;101610.88;5038038;28;20421;-68
2021/06/06 03:03:39;;;;;;;62.57;56.33;;;;;;;20.53;68.75;101604.88;5038053;28;20453;-68
2021/06/06 03:06:12;;;;;;;62.90;56.80;;;;;;;20.43;69.20;101605.06;5037498;28;20461;-69
2021/06/06 03:08:37;;;;;;;60.93;55.07;;;;;;;20.72;68.44;101601.06;5038046;28;20461;-68
2021/06/06 03:11:06;;;;;;;67.23;60.43;;;;;;;20.51;69.13;101605.78;5037988;28;20404;-68
2021/06/06 03:13:32;;;;;;;67.40;60.80;;;;;;;20.33;69.92;101605.22;5037892;28;20468;-68
2021/06/06 03:15:59;;;;;;;64.93;58.53;;;;;;;20.36;70.54;101594.59;5037928;28;20429;-68
2021/06/06 03:18:31;;;;;;;66.37;59.87;;;;;;;20.05;70.93;101599.50;5038364;28;20807;-68
2021/06/06 03:21:08;;;;;;;71.40;64.50;;;;;;;20.19;70.45;101602.81;5038401;28;20661;-67
2021/06/06 03:23:34;;;;;;;68.23;61.53;;;;;;;19.81;71.17;101606.09;5037820;28;20526;-68
2021/06/06 03:26:06;;;;;;;68.17;61.47;;;;;;;19.88;70.76;101602.44;5037571;28;20752;-68
2021/06/06 03:28:34;;;;;;;71.97;64.63;;;;;;;19.55;72.41;101604.63;5037651;28;20422;-67
2021/06/06 03:31:03;;;;;;;74.53;67.10;;;;;;;19.79;71.42;101608.69;5038344;28;20433;-67
2021/06/06 03:33:47;;;;;;;74.73;66.90;;;;;;;19.81;71.30;101609.59;5037428;28;20420;-67
2021/06/06 03:36:18;;;;;;;72.60;65.20;;;;;;;19.98;71.17;101606.66;5038125;28;20478;-68
2021/06/06 03:38:43;;;;;;;77.70;69.80;;;;;;;19.84;71.13;101606.03;5038282;28;20885;-67
2021/06/06 03:41:09;;;;;;;70.90;63.67;;;;;;;19.80;70.89;101614.88;5038095;28;20520;-67
2021/06/06 03:43:34;;;;;;;69.00;62.13;;;;;;;19.63;71.71;101617.75;5038265;28;20217;-68
2021/06/06 03:46:00;;;;;;;79.80;71.63;;;;;;;19.75;71.33;101612.28;5038474;28;20225;-67
2021/06/06 03:48:26;;;;;;;75.30;67.67;;;;;;;19.59;71.73;101614.28;5038048;28;20183;-67
2021/06/06 03:50:52;;;;;;;73.50;66.10;;;;;;;19.91;71.08;101615.59;5037936;28;20178;-67
2021/06/06 03:53:22;;;;;;;66.53;60.00;;;;;;;19.73;70.69;101623.78;5038362;28;20503;-68
2021/06/06 03:55:47;;;;;;;65.30;58.67;;;;;;;19.56;71.52;101618.75;5038059;28;20540;-68
2021/06/06 03:58:13;;;;;;;68.60;61.60;;;;;;;19.66;71.84;101623.88;5037801;28;20457;-68
2021/06/06 04:00:46;;;;;;;74.10;66.03;;;;;;;19.77;71.44;101626.38;5038419;28;20174;-68
2021/06/06 04:03:11;;;;;;;73.70;65.97;;;;;;;19.49;72.24;101631.19;5037568;28;20420;-67
2021/06/06 04:05:37;;;;;;;68.90;61.90;;;;;;;19.67;71.70;101630.94;5037998;28;20659;-67
2021/06/06 04:08:04;;;;;;;64.03;57.37;;;;;;;19.51;71.87;101627.63;5038341;28;20484;-68
2021/06/06 04:10:29;;;;;;;69.17;61.97;;;;;;;19.56;71.56;101632.84;5037470;28;20184;-68
2021/06/06 04:12:54;;;;;;;67.90;61.07;;;;;;;19.59;71.45;101634.56;5037607;28;20500;-67
2021/06/06 04:15:20;;;;;;;70.90;63.50;;;;;;;19.32;72.71;101636.66;5038352;28;20185;-68
2021/06/06 04:17:46;;;;;;;62.37;56.00;;;;;;;19.66;71.60;101630.94;5037453;28;20206;-68
2021/06/06 04:20:12;;;;;;;64.93;58.37;;;;;;;19.42;72.00;101635.66;5038033;28;20178;-69
2021/06/06 04:22:38;;;;;;;65.80;59.07;;;;;;;19.41;71.89;101638.34;5037964;28;20194;-67
2021/06/06 04:25:05;;;;;;;67.73;60.67;;;;;;;19.40;72.04;101642.72;5037331;28;20890;-67
2021/06/06 04:27:31;;;;;;;64.33;57.60;;;;;;;19.49;71.91;101633.81;5037602;28;20182;-68
2021/06/06 04:29:56;;;;;;;64.90;58.40;;;;;;;19.50;71.38;101638.22;5038154;28;20516;-68
2021/06/06 04:32:21;;;;;;;66.53;59.67;;;;;;;19.22;72.27;101648.25;5037649;28;20210;-69
2021/06/06 04:34:48;;;;;;;62.67;56.47;;;;;;;19.45;71.32;101640.91;5037609;28;20449;-68
2021/06/06 04:37:15;;;;;;;63.33;56.70;;;;;;;19.47;71.44;101639.13;5038042;28;20166;-67
2021/06/06 04:39:40;;;;;;;62.57;56.30;;;;;;;19.33;71.37;101651.66;5037480;28;20418;-67
2021/06/06 04:42:09;;;;;;;63.20;56.67;;;;;;;19.13;71.88;101639.56;5037311;28;20421;-68
2021/06/06 04:44:35;;;;;;;61.03;54.83;;;;;;;19.26;72.14;101642.91;5038039;28;20469;-68
2021/06/06 04:47:00;;;;;;;59.40;53.50;;;;;;;19.35;71.49;101640.16;5037391;28;20511;-68
2021/06/06 04:49:26;;;;;;;61.43;55.27;;;;;;;19.48;71.13;101640.00;5037581;28;20443;-68
2021/06/06 04:51:51;;;;;;;61.70;55.60;;;;;;;19.32;71.42;101647.25;5037795;28;20221;-69
2021/06/06 04:54:16;;;;;;;62.60;56.30;;;;;;;19.48;71.26;101643.53;5037372;28;20186;-68
2021/06/06 04:56:42;;;;;;;62.93;56.23;;;;;;;19.46;71.45;101644.44;5037405;28;20611;-67
2021/06/06 04:59:07;;;;;;;59.67;53.60;;;;;;;19.25;72.57;101649.09;5037664;28;20529;-68
2021/06/06 05:01:32;;;;;;;64.37;57.67;;;;;;;19.59;71.51;101646.03;5039203;28;20277;-68
2021/06/06 05:03:58;;;;;;;62.47;56.17;;;;;;;19.61;70.98;101648.66;5041148;28;20205;-68
2021/06/06 05:06:23;;;;;;;61.77;55.47;;;;;;;19.61;71.09;101648.66;5041517;28;20177;-67
2021/06/06 05:08:49;;;;;;;59.17;53.17;;;;;;;19.46;71.20;101655.88;5040919;28;20174;-68
2021/06/06 05:11:14;;;;;;;55.80;50.40;;;;;;;19.45;70.97;101645.34;5040906;28;20170;-68
2021/06/06 05:13:39;;;;;;;54.90;49.33;;;;;;;19.63;70.79;101649.50;5041355;28;20348;-68
2021/06/06 05:16:05;;;;;;;54.50;49.10;;;;;;;19.55;70.68;101652.22;5041012;28;20292;-68
2021/06/06 05:18:30;;;;;;;55.00;49.50;;;;;;;19.51;70.31;101648.78;5040853;28;20261;-68
2021/06/06 05:20:56;;;;;;;54.57;49.03;;;;;;;19.38;71.12;101660.41;5041165;28;20189;-68
2021/06/06 05:23:24;;;;;;;56.00;50.50;;;;;;;19.41;71.36;101660.34;5039867;28;20560;-68
2021/06/06 05:25:50;;;;;;;55.47;49.57;;;;;;;19.31;71.49;101656.09;5040572;28;20460;-68
2021/06/06 05:28:19;;;;;;;55.30;49.57;;;;;;;19.32;71.14;101655.16;5041191;28;20455;-69
2021/06/06 05:30:44;;;;;;;56.90;51.33;;;;;;;19.38;71.50;101659.53;5040604;28;20536;-68
2021/06/06 05:33:10;;;;;;;58.80;52.70;;;;;;;19.44;71.26;101647.09;5040500;28;20424;-68
2021/06/06 05:35:36;;;;;;;52.80;47.50;;;;;;;19.44;71.27;101654.16;5040723;28;20170;-68
2021/06/06 05:38:03;;;;;;;56.07;50.40;;;;;;;19.35;71.35;101652.50;5040558;28;20416;-68
2021/06/06 05:40:30;;;;;;;54.80;49.10;;;;;;;19.43;71.41;101650.66;5040332;28;20406;-67
2021/06/06 05:42:55;;;;;;;59.13;53.00;;;;;;;19.39;71.41;101650.69;5040539;28;20828;-68
2021/06/06 05:45:23;;;;;;;74.17;65.53;;;;;;;19.07;72.72;101647.53;5040270;28;20464;-68
2021/06/06 05:47:49;;;;;;;54.77;49.37;;;;;;;19.27;72.03;101646.44;5040442;28;20170;-68
2021/06/06 05:50:17;;;;;;;50.50;45.53;;;;;;;19.36;71.54;101656.88;5039698;28;20416;-68
2021/06/06 05:52:42;;;;;;;48.20;43.40;;;;;;;19.36;71.51;101656.88;5039982;28;20387;-68
2021/06/06 05:55:08;;;;;;;45.60;41.10;;;;;;;19.46;70.23;101650.59;5040135;28;20697;-68
2021/06/06 05:57:35;;;;;;;50.37;45.40;;;;;;;19.61;70.87;101662.75;5040368;28;20219;-68
2021/06/06 06:00:03;;;;;;;43.30;39.20;;;;;;;19.45;70.98;101655.91;5040038;28;20399;-68
2021/06/06 06:02:29;;;;;;;42.57;38.47;;;;;;;19.69;70.46;101649.44;5039857;28;20516;-68
2021/06/06 06:04:54;;;;;;;41.93;37.97;;;;;;;19.66;70.23;101652.09;5040246;28;20567;-69
2021/06/06 06:07:19;;;;;;;40.00;36.17;;;;;;;19.95;69.02;101653.50;5039843;28;20171;-68
2021/06/06 06:09:45;;;;;;;40.37;36.43;;;;;;;19.77;69.55;101658.13;5039908;28;20230;-69
2021/06/06 06:12:10;;;;;;;41.17;37.30;;;;;;;20.01;68.91;101656.03;5039068;28;20189;-69
2021/06/06 06:14:35;;;;;;;39.80;36.20;;;;;;;20.01;68.57;101662.22;5039664;28;20251;-69
2021/06/06 06:17:01;;;;;;;42.93;38.60;;;;;;;19.53;70.34;101660.19;5039642;28;20178;-68
2021/06/06 06:19:26;;;;;;;39.70;36.10;;;;;;;19.72;69.83;101669.69;5040242;28;20170;-68
2021/06/06 06:21:51;;;;;;;38.67;35.07;;;;;;;19.76;69.68;101672.25;5039440;28;20198;-68
2021/06/06 06:24:17;;;;;;;40.03;36.43;;;;;;;19.43;71.36;101674.44;5039415;28;20236;-66
2021/06/06 06:26:42;;;;;;;41.37;37.30;;;;;;;19.30;71.46;101676.34;5040001;28;20224;-67
2021/06/06 06:29:08;;;;;;;41.90;37.93;;;;;;;19.65;70.15;101663.59;5039268;28;20216;-68
2021/06/06 06:31:34;;;;;;;42.53;38.43;;;;;;;19.35;70.83;101665.72;5039147;28;20181;-68
2021/06/06 06:34:00;;;;;;;43.77;39.43;;;;;;;19.61;70.76;101668.03;5039790;28;20405;-67
2021/06/06 06:36:26;;;;;;;41.97;37.97;;;;;;;19.76;69.68;101663.44;5039212;28;20178;-67
2021/06/06 06:39:05;;;;;;;41.10;37.20;;;;;;;19.82;69.25;101666.03;5039429;28;20399;-67
2021/06/06 06:41:31;;;;;;;39.83;36.20;;;;;;;19.80;69.43;101663.41;5038984;28;20213;-69
2021/06/06 06:43:57;;;;;;;43.17;38.80;;;;;;;19.61;70.02;101680.41;5039032;28;20439;-68
2021/06/06 06:46:23;;;;;;;32.13;29.10;;;;;;;20.04;68.98;101677.19;5038862;28;20175;-61
2021/06/06 06:48:49;;;;;;;29.67;27.00;;;;;;;21.14;64.27;101683.28;5053009;28;20410;-61
2021/06/06 06:51:14;;;;;;;35.37;31.97;;;;;;;20.54;65.86;101687.88;5058589;28;20430;-62
2021/06/06 06:53:40;;;;;;;30.80;28.10;;;;;;;21.31;64.05;101685.59;5059259;28;20535;-62
2021/06/06 06:56:06;;;;;;;36.40;32.53;;;;;;;21.00;64.27;101687.09;5058752;28;20180;-61
2021/06/06 06:58:31;;;;;;;35.30;32.10;;;;;;;20.63;65.49;101692.13;5058997;28;20391;-61
2021/06/06 07:00:56;;;;;;;32.40;29.50;;;;;;;21.23;64.13;101692.84;5059302;28;20169;-61
2021/06/06 07:03:28;;;;;;;36.23;32.83;;;;;;;21.26;64.21;101692.78;5058615;28;20240;-61
2021/06/06 07:05:55;;;;;;;32.80;29.57;;;;;;;21.31;63.22;101690.91;5058515;28;20271;-61
2021/06/06 07:08:24;;;;;;;30.00;26.87;;;;;;;21.62;62.32;101692.97;5058394;28;20724;-62
2021/06/06 07:10:50;;;;;;;34.53;31.43;;;;;;;21.49;63.00;101693.19;5058460;28;20387;-62
2021/06/06 07:13:16;;;;;;;35.90;32.50;;;;;;;21.05;64.42;101702.03;5058238;28;20653;-63
2021/06/06 07:15:42;;;;;;;34.83;31.53;;;;;;;20.96;64.71;101705.72;5058896;28;20768;-61
2021/06/06 07:18:10;;;;;;;34.30;31.20;;;;;;;21.08;64.54;101704.63;5058297;28;20412;-62
2021/06/06 07:20:37;;;;;;;32.13;29.10;;;;;;;21.50;62.77;101697.59;5058353;28;20555;-63
2021/06/06 07:23:04;;;;;;;34.60;31.50;;;;;;;21.19;63.99;101705.31;5057576;28;20528;-61
2021/06/06 07:25:30;;;;;;;35.40;31.80;;;;;;;21.10;63.94;101709.00;5057951;28;20464;-63
2021/06/06 07:27:56;;;;;;;33.13;30.03;;;;;;;21.41;63.10;101710.19;5058227;28;20395;-64
2021/06/06 07:30:27;;;;;;;27.20;24.77;;;;;;;21.53;63.10;101704.66;5058659;28;20180;-64
2021/06/06 07:32:52;;;;;;;38.80;35.00;;;;;;;21.40;61.99;101709.28;5057461;28;20421;-64
2021/06/06 07:35:21;;;;;;;31.23;28.30;;;;;;;21.74;61.39;101710.41;5057989;28;20420;-64
2021/06/06 07:37:47;;;;;;;32.27;29.03;;;;;;;21.16;63.42;101706.22;5057731;28;20197;-64
2021/06/06 07:40:14;;;;;;;35.77;32.37;;;;;;;21.06;63.79;101709.94;5057357;28;20459;-63
2021/06/06 07:42:39;;;;;;;32.43;29.40;;;;;;;21.42;62.51;101710.16;5058162;28;20481;-64
2021/06/06 07:45:06;;;;;;;34.17;31.00;;;;;;;21.06;63.44;101709.94;5058377;28;20510;-64
2021/06/06 07:47:32;;;;;;;32.43;29.40;;;;;;;21.83;61.46;101711.06;5057814;28;20201;-64
2021/06/06 07:49:58;;;;;;;33.67;30.47;;;;;;;21.69;61.75;101715.81;5057696;28;20678;-64
2021/06/06 07:52:24;;;;;;;30.93;28.13;;;;;;;21.89;61.49;101704.75;5058234;28;20161;-64
2021/06/06 07:54:50;;;;;;;28.73;25.93;;;;;;;22.18;60.09;101705.88;5057336;28;20706;-62
2021/06/06 07:57:18;;;;;;;31.33;28.33;;;;;;;21.62;61.80;101707.13;5057788;28;20174;-62
2021/06/06 07:59:47;;;;;;;28.80;26.20;;;;;;;21.79;61.68;101706.75;5057690;28;20220;-62
2021/06/06 08:02:12;;;;;;;27.00;24.40;;;;;;;22.19;59.93;101703.19;5057624;28;20418;-63
2021/06/06 08:04:37;;;;;;;34.03;30.73;;;;;;;21.51;62.12;101709.97;5057748;28;20475;-63
2021/06/06 08:07:04;;;;;;;30.80;27.90;;;;;;;22.16;60.55;101708.59;5057961;28;20244;-63
2021/06/06 08:09:29;;;;;;;32.03;28.83;;;;;;;21.85;61.50;101713.69;5057690;28;20196;-61
2021/06/06 08:11:55;;;;;;;31.60;27.90;;;;;;;22.02;60.40;101710.66;5057502;28;20456;-61
2021/06/06 08:14:20;;;;;;;31.47;28.40;;;;;;;21.89;60.95;101710.06;5058156;28;20195;-61
2021/06/06 08:16:46;;;;;;;29.77;26.97;;;;;;;22.52;59.48;101711.28;5057530;28;20447;-61
2021/06/06 08:19:11;;;;;;;30.10;27.00;;;;;;;22.08;60.75;101712.31;5057527;28;20239;-62
2021/06/06 08:21:40;;;;;;;32.70;29.63;;;;;;;21.74;62.29;101718.38;5058022;28;20208;-63
2021/06/06 08:24:07;;;;;;;34.07;30.60;;;;;;;22.26;61.08;101713.66;5057334;28;20208;-62
2021/06/06 08:26:32;;;;;;;31.40;28.20;;;;;;;21.63;63.21;101710.63;5057768;28;20439;-63
2021/06/06 08:28:58;;;;;;;32.47;29.27;;;;;;;21.57;63.38;101718.72;5058236;28;20805;-62
2021/06/06 08:31:29;;;;;;;34.00;30.70;;;;;;;21.43;63.62;101717.19;5057359;28;20180;-62
2021/06/06 08:33:55;;;;;;;33.50;30.20;;;;;;;21.04;64.91;101717.06;5057702;28;20169;-62
2021/06/06 08:36:27;;;;;;;31.47;28.47;;;;;;;21.35;64.21;101717.34;5059636;28;20412;-64
2021/06/06 08:38:54;;;;;;;31.70;28.80;;;;;;;21.56;63.43;101711.69;5061708;28;20166;-62
2021/06/06 08:41:19;;;;;;;29.63;26.60;;;;;;;22.18;61.61;101714.72;5061342;28;20408;-62
2021/06/06 08:43:48;;;;;;;33.17;30.07;;;;;;;21.84;62.85;101711.97;5061932;28;20458;-62
2021/06/06 08:46:17;;;;;;;33.40;30.30;;;;;;;21.66;62.61;101726.47;5060764;28;20255;-63
2021/06/06 08:48:43;;;;;;;32.40;29.30;;;;;;;22.46;61.54;101713.19;5061342;28;20693;-62
2021/06/06 08:51:18;;;;;;;31.70;28.60;;;;;;;22.83;59.74;101712.28;5061529;28;20465;-62
2021/06/06 08:53:57;;;;;;;32.67;29.50;;;;;;;22.83;59.49;101710.50;5060380;28;20168;-63
2021/06/06 08:56:33;;;;;;;34.13;30.83;;;;;;;22.09;61.44;101722.88;5060899;28;20425;-63
2021/06/06 08:59:20;;;;;;;33.77;30.57;;;;;;;21.40;63.59;101724.34;5060462;28;20458;-63
2021/06/06 09:02:17;;;;;;;30.93;27.80;;;;;;;21.92;62.36;101722.38;5060929;28;20396;-64
2021/06/06 09:04:43;;;;;;;31.87;28.93;;;;;;;21.63;63.36;101727.41;5052353;28;20463;-63
2021/06/06 09:07:13;;;;;;;36.50;32.20;;;;;;;21.25;64.63;101729.03;5060993;28;20430;-69
2021/06/06 09:09:47;;;;;;;38.10;33.57;;;;;;;21.43;64.30;101727.78;5060172;28;20165;-66
2021/06/06 09:12:18;;;;;;;39.67;35.80;;;;;;;21.38;64.72;101740.28;5060724;28;20420;-66
2021/06/06 09:14:46;;;;;;;36.17;32.53;;;;;;;21.42;64.34;101734.03;5060769;28;20424;-65
2021/06/06 09:17:13;;;;;;;37.40;33.50;;;;;;;20.99;65.92;101737.47;5059954;28;20470;-65
2021/06/06 09:19:45;;;;;;;35.60;32.13;;;;;;;21.23;65.55;101729.97;5060647;28;20412;-66
2021/06/06 09:22:11;;;;;;;37.57;33.90;;;;;;;21.10;65.14;101730.19;5060748;28;20428;-66
2021/06/06 09:24:44;;;;;;;36.87;33.10;;;;;;;21.08;65.17;101742.63;5060575;28;20471;-66
2021/06/06 09:27:21;;;;;;;39.00;35.20;;;;;;;20.78;66.18;101736.97;5059921;28;20400;-66
2021/06/06 09:29:59;;;;;;;37.97;34.27;;;;;;;20.69;66.20;101737.13;5060718;28;20426;-66
2021/06/06 09:32:24;;;;;;;38.80;34.93;;;;;;;20.73;66.56;101741.47;5060452;28;20423;-65
2021/06/06 09:34:52;;;;;;;36.20;32.57;;;;;;;21.10;64.85;101732.84;5060481;28;20416;-65
2021/06/06 09:37:19;;;;;;;36.80;33.30;;;;;;;21.28;65.14;101736.06;5060358;28;20173;-66
2021/06/06 09:39:52;;;;;;;35.90;32.37;;;;;;;21.32;64.67;101743.91;5059649;28;20843;-65
2021/06/06 09:42:29;;;;;;;38.33;34.50;;;;;;;21.51;63.32;101738.25;5059366;28;20800;-66
2021/06/06 09:45:20;;;;;;;32.37;29.17;;;;;;;21.15;64.21;101741.59;5060353;28;20455;-65
2021/06/06 09:48:16;;;;;;;35.80;32.33;;;;;;;21.29;64.19;101741.31;5060238;28;20466;-65
2021/06/06 09:50:50;;;;;;;35.53;32.03;;;;;;;21.54;63.68;101735.56;5060281;28;20408;-65
2021/06/06 09:53:18;;;;;;;44.07;39.50;;;;;;;;;;5059330;28;20408;-65
2021/06/06 09:55:44;;;;;;;35.33;31.83;;;;;;;21.00;65.26;101741.88;5059957;28;20462;-66
2021/06/06 09:58:15;;;;;;;35.60;32.00;;;;;;;21.02;65.25;101743.59;5060015;28;20416;-67
2021/06/06 10:00:44;;;;;;;41.50;33.70;;;;;;;21.07;64.26;101750.59;5059349;28;20443;-66
2021/06/06 10:03:21;;;;;;;36.47;32.90;;;;;;;21.68;62.65;101744.13;5059047;28;20427;-66
2021/06/06 10:05:47;;;;;;;36.93;33.20;;;;;;;21.59;63.14;101746.09;5059974;28;20466;-65
2021/06/06 10:08:25;;;;;;;35.23;31.60;;;;;;;21.12;63.92;101746.97;5059696;28;20468;-65
2021/06/06 10:10:54;;;;;;;36.40;32.70;;;;;;;21.65;62.57;101748.63;5059925;28;20205;-64
2021/06/06 10:13:28;;;;;;;38.67;33.10;;;;;;;21.33;64.05;101750.13;5059589;28;20418;-66
2021/06/06 10:16:04;;;;;;;36.47;32.73;;;;;;;21.61;63.58;101750.47;5058945;28;20627;-66
2021/06/06 10:18:36;;;;;;;35.90;32.10;;;;;;;21.51;63.95;101756.81;5058949;28;20412;-66
2021/06/06 10:21:13;;;;;;;36.53;32.80;;;;;;;21.49;63.35;101756.88;5058906;28;20822;-65
2021/06/06 10:23:42;;;;;;;36.90;33.10;;;;;;;21.53;63.09;101757.72;5058813;28;20455;-65
2021/06/06 10:26:14;;;;;;;34.50;31.10;;;;;;;21.58;62.97;101760.28;5058351;28;20452;-66
2021/06/06 10:28:42;;;;;;;34.27;30.90;;;;;;;21.70;63.10;101758.25;5059053;28;20415;-64
2021/06/06 10:31:23;;;;;;;34.23;30.73;;;;;;;21.73;62.29;101759.06;5059486;28;20404;-65
2021/06/06 10:33:57;;;;;;;34.60;31.00;;;;;;;21.87;62.51;101757.03;5059352;28;20655;-65
2021/06/06 10:36:25;;;;;;;36.40;32.73;;;;;;;21.97;61.89;101761.19;5059064;28;20408;-66
2021/06/06 10:38:50;;;;;;;37.93;34.10;;;;;;;22.30;61.67;101757.81;5059160;28;20429;-64
2021/06/06 10:41:20;;;;;;;35.87;32.23;;;;;;;21.69;61.92;101763.59;5059179;28;20416;-65
2021/06/06 10:43:59;;;;;;;33.47;30.13;;;;;;;21.80;62.15;101760.72;5059298;28;20257;-65
2021/06/06 10:46:30;;;;;;;34.70;31.30;;;;;;;21.61;62.37;101763.75;5058450;28;20416;-66
2021/06/06 10:49:30;;;;;;;35.73;32.10;;;;;;;21.69;62.69;101766.25;5058301;28;20404;-67
2021/06/06 10:52:04;;;;;;;38.60;34.60;;;;;;;22.09;62.04;101760.06;5058425;28;20434;-65
2021/06/06 10:54:46;;;;;;;33.43;29.97;;;;;;;21.74;62.48;101766.13;5058967;28;20489;-66
2021/06/06 10:57:24;;;;;;;31.60;28.40;;;;;;;21.34;63.50;101760.69;5057991;28;20419;-65
2021/06/06 11:00:01;;;;;;;32.23;29.10;;;;;;;21.72;61.80;101765.28;5058259;28;20507;-67
2021/06/06 11:02:31;;;;;;;31.60;28.57;;;;;;;21.96;61.87;101769.22;5058618;28;20646;-66
2021/06/06 11:05:00;;;;;;;38.07;34.50;;;;;;;22.14;60.83;101760.84;5058688;28;20682;-66
2021/06/06 11:07:31;;;;;;;32.13;29.17;;;;;;;22.10;60.44;101761.81;5057827;28;20466;-66
2021/06/06 11:10:33;;;;;;;32.17;28.93;;;;;;;21.91;61.13;101764.00;5058522;28;20415;-67
2021/06/06 11:13:12;;;;;;;35.07;31.70;;;;;;;22.18;61.57;101754.56;5058363;28;20416;-66
2021/06/06 11:15:54;;;;;;;33.83;30.63;;;;;;;22.59;60.61;101758.97;5058539;28;20848;-67
2021/06/06 11:18:22;;;;;;;35.63;32.10;;;;;;;22.33;59.59;101757.78;5058507;28;20415;-67
2021/06/06 11:21:00;;;;;;;30.97;28.27;;;;;;;22.16;60.72;101759.03;5058528;28;20420;-67